Relevés horaires Matro (Suisse)


Relevés horaires à Matro - Vendredi 19 Déc. 2014
Heure UTC1 Température [°C] Vent [km/h] Hum. [%] Pres.4 [hPa] Visi. [Km] Nébu. [octa] Préc.5 [mm] Cond.
2m. Res. Ros. Dir.2 Vit. Moy. Raf.3
23:00 2.0 -3 -4.8 ONO 22.2 27.8 37.0 61 850(0.0/3h) -- -- -- --
22:00 2.5 -3 -6.6 NO 27.8 31.5 40.7 51 850(-0.2/3h) -- -- -- --
21:00 2.8 -2.6 -9.8 NO 27.8 27.8 38.9 39 850(0.1/3h) -- -- -- --
20:00 3.3 -1.1 -11.1 ONO 20.4 20.4 29.6 34 850(0.1/3h) -- -- -- --
19:00 4.0 0.9 -12.3 O 13.0 18.5 24.1 29 850(0.1/3h) -- -- -- --
18:00 4.2 1.1 -12.0 O 13.0 16.7 24.1 30 850(-0.3/3h) -- -- -- --
17:00 4.4 1.7 -11.2 O 11.1 13.0 22.2 31 850(-0.5/3h) -- -- -- --
16:00 4.4 2.6 -10.8 ONO 7.4 14.8 18.5 32 850(-0.5/3h) -- -- -- --
15:00 4.3 1.2 -7.7 NO 13.0 14.8 16.7 41 850(-0.9/3h) -- -- -- --
14:00 4.4 1.3 -7.6 NO 13.0 13.0 14.8 41 850(-1.2/3h) -- -- -- --
13:00 4.8 3.6 -9.2 O 5.6 9.3 14.8 35 850(-1.3/3h) -- -- -- --
12:00 4.8 3.1 -6.4 OSO 7.4 18.5 20.4 44 850(-0.6/3h) -- -- -- --
11:00 6.1 6.1 -6.9 S 1.9 7.4 16.7 39 850(-0.1/3h) -- -- -- --
10:00 4.9 4.9 -5.9 SSE 1.9 1.9 5.6 45 850(0.5/3h) -- -- -- --
09:00 4.4 4.4 -8.1 OSO 1.9 18.5 20.4 40 850(0.6/3h) -- -- -- --
08:00 4.7 2.9 -9.4 SO 7.4 11.1 18.5 35 850(0.7/3h) -- -- -- --
07:00 4.2 1.5 -9.7 O 11.1 18.5 20.4 35 850(0.4/3h) -- -- -- --
06:00 4.0 0 -10.1 O 18.5 29.6 38.9 35 850(0.0/3h) -- -- -- --
05:00 3.9 0.1 -10.2 ONO 16.7 16.7 22.2 35 850(-0.3/3h) -- -- -- --
04:00 3.6 -0.2 -9.1 ONO 16.7 22.2 29.6 39 850(0.1/3h) -- -- -- --
03:00 3.6 -1 -7.9 ONO 22.2 29.6 38.9 43 850(-0.1/3h) -- -- -- --
02:00 3.9 -0.6 -9.0 NO 22.2 27.8 38.9 38 850(0.0/3h) -- -- -- --
01:00 3.9 -1.3 -9.0 NO 29.6 29.6 38.9 38 850(-0.2/3h) -- -- -- --
00:00 4.2 -1 -9.1 NO 29.6 40.7 57.4 37 850(0.0/3h) -- -- -- --

1 Coordinated Universal Time. Actuellement il est 10:00 locale et 08:00 UTC.

2 Le vent souffle depuis la direction indiquée vers la direction oposée.

3 Les rafales max. sont disponible 40 min après l'heure du relevé.

4 Pour les stations d'altitude (plus de 600m) le géopotentiel du niveau le plus proche de la pression obligatoire est indiqué.

5 Les stations disposant d'un diffuseur peuvent indiquer "trace". Cela signifie que des précipitations ont touchés le sol mais que la quantité est inférieure à 0.1 mm.

Copyright

Les données affichées sur cette page sont la propriété exclusive de Météo Suisse.

Récapitulatif de la journée
Température [°C] Vent [km/h] Ensoleillement4 [h] Precipitations totale5 [mm] Pression [Hpa]
Min1 Max.2 Moy.3 Max. Min Max.
2.9 6.1 20 57.4 2 h 36 min 0 850.0 850.0

1 Température minimale relevée entre 18:00 UTC la veille et 18:00 UTC le jour donné.

2 Température maximale relevée entre 06:00 UTC le jour donné et 06:00 UTC le lendemain.

3 Vent moyen de la journée basé sur les relevés horaires.

4 Ensoleillement en heures relevé entre 06:00 UTC la veille et 06:00 UTC le jour donné.

5 Précipitations totales tombées entre 06:00 UTC la jour donné et 06:00 UTC le lendemain.

Graphiques horaires